Time;durP1;ratioP1;P1;durP2;ratioP2;P2;SDS_P1;SDS_P2;PMS_P1;PMS_P2;Temp;Humidity;BMP_temperature;BMP_pressure;BME280_temperature;BME280_humidity;BME280_pressure;Samples;Min_cycle;Max_cycle;Signal;HPM_P1;HPM_P2
2021/06/30 00:00:26;;;;;;;0.40;0.40;;;17.00;99.90;;;;;;5039294;28;20579;-73
2021/06/30 00:02:52;;;;;;;0.40;0.40;;;17.00;99.90;;;;;;5041557;28;20197;-73
2021/06/30 00:05:18;;;;;;;0.60;0.60;;;17.00;99.90;;;;;;5040371;28;20863;-73
2021/06/30 00:07:43;;;;;;;0.90;0.65;;;16.90;99.90;;;;;;5042448;28;20317;-73
2021/06/30 00:10:12;;;;;;;0.98;0.93;;;16.90;99.90;;;;;;5040378;28;20773;-72
2021/06/30 00:12:37;;;;;;;1.17;0.88;;;16.90;99.90;;;;;;5039042;28;20305;-72
2021/06/30 00:15:25;;;;;;;0.40;0.40;;;16.90;99.90;;;;;;5041386;28;20289;-72
2021/06/30 00:17:51;;;;;;;0.40;0.40;;;16.90;99.90;;;;;;5040807;28;20205;-73
2021/06/30 00:20:17;;;;;;;1.13;0.88;;;16.80;99.90;;;;;;5040099;28;20231;-72
2021/06/30 00:22:43;;;;;;;0.35;0.35;;;16.80;99.90;;;;;;5041954;28;20197;-73
2021/06/30 00:25:10;;;;;;;0.65;0.60;;;16.80;99.90;;;;;;5041646;28;20308;-72
2021/06/30 00:27:36;;;;;;;1.42;0.60;;;16.70;99.90;;;;;;5042255;28;20194;-73
2021/06/30 00:30:03;;;;;;;1.08;0.95;;;16.60;99.90;;;;;;5040017;28;20204;-73
2021/06/30 00:32:29;;;;;;;0.75;0.65;;;16.60;99.90;;;;;;5040725;28;20202;-73
2021/06/30 00:34:54;;;;;;;0.30;0.30;;;16.60;99.90;;;;;;5037914;28;20219;-73
2021/06/30 00:37:20;;;;;;;0.32;0.32;;;16.50;99.90;;;;;;5037775;28;20201;-72
2021/06/30 00:39:46;;;;;;;1.15;0.60;;;16.60;99.90;;;;;;5038603;28;20289;-73
2021/06/30 00:42:12;;;;;;;0.77;0.77;;;16.50;99.90;;;;;;5041997;28;20312;-73
2021/06/30 00:44:42;;;;;;;0.50;0.47;;;16.50;99.90;;;;;;5055279;28;20212;-72
2021/06/30 00:47:07;;;;;;;0.40;0.40;;;16.50;99.90;;;;;;5041271;28;20190;-73
2021/06/30 00:49:33;;;;;;;1.05;0.95;;;16.40;99.90;;;;;;5040914;28;20738;-73
2021/06/30 00:51:59;;;;;;;0.82;0.50;;;16.50;99.90;;;;;;5039854;28;20205;-74
2021/06/30 00:54:24;;;;;;;1.20;0.70;;;16.40;99.90;;;;;;5055060;28;20257;-72
2021/06/30 00:56:51;;;;;;;0.57;0.57;;;16.40;99.90;;;;;;5037807;28;20478;-73
2021/06/30 00:59:18;;;;;;;0.47;0.47;;;16.40;99.90;;;;;;5039713;28;20622;-73
2021/06/30 01:01:44;;;;;;;0.82;0.68;;;16.50;99.90;;;;;;5040082;28;20280;-74
2021/06/30 01:04:10;;;;;;;0.50;0.50;;;16.50;99.90;;;;;;5037412;28;20247;-73
2021/06/30 01:06:35;;;;;;;0.35;0.35;;;16.40;99.90;;;;;;5038639;28;20197;-73
2021/06/30 01:09:03;;;;;;;0.80;0.80;;;16.40;99.90;;;;;;5055566;28;20201;-73
2021/06/30 01:11:30;;;;;;;0.52;0.52;;;16.40;99.90;;;;;;5039140;28;20688;-73
2021/06/30 01:13:56;;;;;;;0.50;0.50;;;16.40;99.90;;;;;;5041271;28;20197;-73
2021/06/30 01:16:22;;;;;;;1.33;0.90;;;16.40;99.90;;;;;;5040963;28;20201;-73
2021/06/30 01:18:47;;;;;;;0.47;0.47;;;16.40;99.90;;;;;;5040824;28;20299;-73
2021/06/30 01:21:15;;;;;;;2.40;0.70;;;16.40;99.90;;;;;;5037516;28;20208;-74
2021/06/30 01:23:42;;;;;;;0.82;0.82;;;16.40;99.90;;;;;;5041389;28;20636;-73
2021/06/30 01:26:09;;;;;;;0.60;0.60;;;16.40;99.90;;;;;;5037499;28;20197;-73
2021/06/30 01:28:35;;;;;;;0.30;0.30;;;16.40;99.90;;;;;;5038585;28;20224;-74
2021/06/30 01:31:02;;;;;;;0.40;0.40;;;16.50;99.90;;;;;;5039151;28;20335;-74
2021/06/30 01:33:28;;;;;;;0.40;0.40;;;16.40;99.90;;;;;;5037277;28;20202;-74
2021/06/30 01:35:54;;;;;;;0.80;0.43;;;16.40;99.90;;;;;;5038121;28;20244;-74
2021/06/30 01:38:26;;;;;;;0.35;0.35;;;16.40;99.90;;;;;;5037985;28;20691;-75
2021/06/30 01:40:54;;;;;;;0.35;0.35;;;16.40;99.90;;;;;;5040052;28;20655;-74
2021/06/30 01:43:21;;;;;;;0.50;0.50;;;16.30;99.90;;;;;;5039296;28;20205;-73
2021/06/30 01:45:50;;;;;;;0.95;0.95;;;16.30;99.90;;;;;;5038601;28;20201;-73
2021/06/30 01:48:16;;;;;;;0.70;0.68;;;16.20;99.90;;;;;;5037408;28;20276;-72
2021/06/30 01:50:42;;;;;;;0.47;0.47;;;16.20;99.90;;;;;;5037655;28;20197;-74
2021/06/30 01:53:07;;;;;;;1.65;0.98;;;16.20;99.90;;;;;;5037297;28;20198;-73
2021/06/30 01:55:35;;;;;;;0.57;0.57;;;16.20;99.90;;;;;;5039179;28;20320;-74
2021/06/30 01:58:01;;;;;;;0.75;0.73;;;16.20;99.90;;;;;;5039351;28;20589;-72
2021/06/30 02:00:27;;;;;;;0.80;0.80;;;16.20;99.90;;;;;;5032764;28;20859;-73
2021/06/30 02:02:52;;;;;;;0.57;0.57;;;16.20;99.90;;;;;;5036738;28;20197;-73
2021/06/30 02:05:21;;;;;;;0.40;0.40;;;16.10;99.90;;;;;;5041227;28;20209;-73
2021/06/30 02:07:52;;;;;;;0.93;0.60;;;16.10;99.90;;;;;;5041628;28;20527;-73
2021/06/30 02:10:19;;;;;;;0.70;0.70;;;16.10;99.90;;;;;;5040724;28;20637;-73
2021/06/30 02:12:46;;;;;;;0.93;0.85;;;16.10;99.90;;;;;;5040758;28;20248;-72
2021/06/30 02:15:21;;;;;;;1.13;0.93;;;16.10;99.90;;;;;;5040234;28;20654;-73
2021/06/30 02:17:48;;;;;;;2.35;1.83;;;16.00;99.90;;;;;;5040409;28;20264;-72
2021/06/30 02:20:15;;;;;;;1.17;1.08;;;16.00;99.90;;;;;;5041233;28;20283;-73
2021/06/30 02:22:41;;;;;;;0.80;0.80;;;15.90;99.90;;;;;;5041318;28;20200;-73
2021/06/30 02:25:13;;;;;;;0.88;0.55;;;15.80;99.90;;;;;;5037883;28;20255;-72
2021/06/30 02:27:39;;;;;;;0.73;0.73;;;15.80;99.90;;;;;;5042618;28;20197;-73
2021/06/30 02:30:08;;;;;;;0.50;0.50;;;15.70;99.90;;;;;;5036020;28;20217;-73
2021/06/30 02:32:34;;;;;;;0.52;0.52;;;15.60;99.90;;;;;;5040702;28;20193;-73
2021/06/30 02:35:00;;;;;;;1.02;1.02;;;15.60;99.90;;;;;;5040811;28;20204;-72
2021/06/30 02:37:25;;;;;;;0.70;0.70;;;15.50;99.90;;;;;;5040993;28;20668;-72
2021/06/30 02:39:51;;;;;;;1.05;0.95;;;15.40;99.90;;;;;;5040090;28;20866;-73
2021/06/30 02:42:17;;;;;;;1.52;0.80;;;15.40;99.90;;;;;;5055121;28;20201;-72
2021/06/30 02:44:42;;;;;;;0.70;0.70;;;15.30;99.90;;;;;;5040993;28;20212;-73
2021/06/30 02:47:08;;;;;;;0.55;0.55;;;15.30;99.90;;;;;;5039530;28;20699;-72
2021/06/30 02:49:34;;;;;;;2.30;0.82;;;15.30;99.90;;;;;;5037572;28;20582;-73
2021/06/30 02:52:00;;;;;;;0.60;0.60;;;15.20;99.90;;;;;;5038903;28;20200;-72
2021/06/30 02:54:26;;;;;;;0.70;0.70;;;15.20;99.90;;;;;;5041988;28;20215;-73
2021/06/30 02:56:52;;;;;;;0.93;0.77;;;15.20;99.90;;;;;;5041624;28;20231;-73
2021/06/30 02:59:17;;;;;;;0.50;0.50;;;15.20;99.90;;;;;;5040131;28;20197;-73
2021/06/30 03:01:43;;;;;;;0.93;0.55;;;15.10;99.90;;;;;;5041015;28;20208;-73
2021/06/30 03:04:08;;;;;;;0.60;0.60;;;15.10;99.90;;;;;;5038988;28;20236;-72
2021/06/30 03:06:34;;;;;;;0.55;0.55;;;15.10;99.90;;;;;;5038253;28;20320;-73
2021/06/30 03:09:00;;;;;;;0.50;0.50;;;15.00;99.90;;;;;;5041483;28;20185;-73
2021/06/30 03:11:26;;;;;;;0.70;0.70;;;15.00;99.90;;;;;;5039671;28;20201;-73
2021/06/30 03:13:51;;;;;;;0.45;0.45;;;15.00;99.90;;;;;;5039418;28;20541;-73
2021/06/30 03:16:17;;;;;;;0.65;0.65;;;15.00;99.90;;;;;;5041964;28;20297;-73
2021/06/30 03:18:43;;;;;;;0.50;0.50;;;14.90;99.90;;;;;;5040697;28;20196;-73
2021/06/30 03:21:10;;;;;;;0.52;0.52;;;14.90;99.90;;;;;;5040957;28;20232;-73
2021/06/30 03:23:36;;;;;;;0.52;0.52;;;14.90;99.90;;;;;;5040831;28;20197;-72
2021/06/30 03:26:02;;;;;;;0.50;0.50;;;14.80;99.90;;;;;;5041731;28;20213;-74
2021/06/30 03:28:28;;;;;;;0.50;0.50;;;14.80;99.90;;;;;;5043984;28;20197;-74
2021/06/30 03:30:53;;;;;;;0.50;0.50;;;14.80;99.90;;;;;;5041853;28;20202;-72
2021/06/30 03:33:19;;;;;;;4.63;1.13;;;14.80;99.90;;;;;;5043825;28;20204;-73
2021/06/30 03:35:45;;;;;;;1.65;1.02;;;14.80;99.90;;;;;;5044110;28;20201;-72
2021/06/30 03:38:10;;;;;;;0.40;0.40;;;14.80;99.90;;;;;;5041967;28;20273;-72
2021/06/30 03:40:36;;;;;;;1.50;1.40;;;14.90;99.90;;;;;;5043976;28;20201;-72
2021/06/30 03:43:02;;;;;;;0.50;0.50;;;14.90;99.90;;;;;;5046504;28;20208;-72
2021/06/30 03:45:27;;;;;;;0.50;0.50;;;15.00;99.90;;;;;;5040631;28;20217;-72
2021/06/30 03:47:53;;;;;;;0.50;0.50;;;15.00;99.90;;;;;;5044655;28;20220;-72
2021/06/30 03:50:19;;;;;;;0.50;0.50;;;14.90;99.90;;;;;;5043369;28;20189;-73
2021/06/30 03:52:45;;;;;;;2.60;0.73;;;14.90;99.90;;;;;;5042207;28;20190;-72
2021/06/30 03:55:11;;;;;;;0.50;0.50;;;15.00;99.90;;;;;;5044121;28;20228;-72
2021/06/30 03:57:36;;;;;;;2.28;1.10;;;15.00;99.90;;;;;;5041953;28;20212;-73
2021/06/30 04:00:08;;;;;;;0.75;0.75;;;15.00;99.90;;;;;;5040493;28;20202;-74
2021/06/30 04:02:34;;;;;;;0.90;0.85;;;15.00;99.90;;;;;;5039926;28;20205;-73
2021/06/30 04:05:00;;;;;;;0.82;0.82;;;14.90;99.90;;;;;;5040948;28;20240;-72
2021/06/30 04:07:25;;;;;;;0.60;0.60;;;15.00;99.90;;;;;;5044638;28;20194;-72
2021/06/30 04:09:51;;;;;;;14.68;2.05;;;14.90;99.90;;;;;;5043614;28;20193;-71
2021/06/30 04:12:17;;;;;;;1.00;1.00;;;15.00;99.90;;;;;;5038614;28;20676;-72
2021/06/30 04:14:43;;;;;;;0.45;0.45;;;15.00;99.90;;;;;;5041038;28;20189;-72
2021/06/30 04:17:08;;;;;;;0.60;0.60;;;14.90;99.90;;;;;;5041048;28;20293;-73
2021/06/30 04:19:34;;;;;;;0.40;0.40;;;14.90;99.90;;;;;;5046262;28;20236;-74
2021/06/30 04:22:00;;;;;;;0.60;0.60;;;14.80;99.90;;;;;;5044727;28;20276;-74
2021/06/30 04:24:25;;;;;;;0.60;0.60;;;14.80;99.90;;;;;;5036745;28;20253;-72
2021/06/30 04:26:51;;;;;;;0.40;0.40;;;14.80;99.90;;;;;;5041302;28;20190;-72
2021/06/30 04:29:17;;;;;;;2.05;1.30;;;14.80;99.90;;;;;;5043594;28;20236;-73
2021/06/30 04:31:43;;;;;;;0.57;0.57;;;14.80;99.90;;;;;;5054821;28;20278;-72
2021/06/30 04:34:08;;;;;;;0.68;0.68;;;14.60;99.90;;;;;;5043004;28;20201;-72
2021/06/30 04:36:34;;;;;;;0.55;0.55;;;14.50;99.90;;;;;;5042032;28;20205;-72
2021/06/30 04:39:00;;;;;;;0.95;0.80;;;14.50;99.90;;;;;;5034672;28;20209;-74
2021/06/30 04:41:25;;;;;;;0.52;0.52;;;14.40;99.90;;;;;;5036369;28;20266;-71
2021/06/30 04:43:51;;;;;;;1.65;1.25;;;14.30;99.90;;;;;;5037689;28;20205;-72
2021/06/30 04:46:17;;;;;;;0.50;0.50;;;14.20;99.90;;;;;;5034489;28;20209;-72
2021/06/30 04:48:42;;;;;;;0.70;0.70;;;14.10;99.90;;;;;;5038227;28;20197;-72
2021/06/30 04:51:08;;;;;;;0.50;0.50;;;14.00;99.90;;;;;;5034583;28;20197;-73
2021/06/30 04:53:34;;;;;;;0.75;0.75;;;14.00;99.90;;;;;;5035834;28;21008;-73
2021/06/30 04:56:00;;;;;;;0.90;0.60;;;14.00;99.90;;;;;;5032256;28;20206;-73
2021/06/30 04:58:26;;;;;;;0.45;0.45;;;14.10;99.90;;;;;;5037097;28;20241;-74
2021/06/30 05:00:56;;;;;;;0.60;0.60;;;14.10;99.90;;;;;;5031025;28;20542;-73
2021/06/30 05:03:27;;;;;;;2.38;0.88;;;14.10;99.90;;;;;;5037114;28;20232;-74
2021/06/30 05:05:54;;;;;;;1.33;1.23;;;14.10;99.90;;;;;;5031761;28;20261;-71
2021/06/30 05:08:24;;;;;;;0.63;0.63;;;14.20;99.90;;;;;;5052051;28;20197;-72
2021/06/30 05:10:51;;;;;;;1.45;1.13;;;14.30;99.90;;;;;;5035770;28;20233;-72
2021/06/30 05:13:17;;;;;;;0.85;0.73;;;14.40;99.90;;;;;;5033813;28;20896;-71
2021/06/30 05:15:43;;;;;;;0.50;0.50;;;14.60;99.90;;;;;;5033444;28;20198;-72
2021/06/30 05:18:09;;;;;;;29.35;0.93;;;14.60;99.90;;;;;;5038315;28;20208;-72
2021/06/30 05:20:35;;;;;;;0.70;0.70;;;14.50;99.90;;;;;;5033142;28;20779;-73
2021/06/30 05:23:00;;;;;;;0.43;0.43;;;14.40;99.90;;;;;;5035819;28;20233;-73
2021/06/30 05:25:26;;;;;;;0.70;0.70;;;14.40;99.90;;;;;;5035602;28;20217;-71
2021/06/30 05:27:52;;;;;;;0.55;0.55;;;14.60;99.90;;;;;;5036291;28;20272;-72
2021/06/30 05:30:18;;;;;;;0.85;0.60;;;14.90;99.90;;;;;;5036641;28;20239;-72
2021/06/30 05:32:43;;;;;;;0.95;0.85;;;15.10;99.90;;;;;;5036340;28;20197;-72
2021/06/30 05:35:09;;;;;;;1.20;0.75;;;15.30;99.90;;;;;;5029764;28;20704;-73
2021/06/30 05:37:35;;;;;;;1.00;0.82;;;15.40;99.90;;;;;;5037043;28;20205;-73
2021/06/30 05:40:01;;;;;;;0.30;0.30;;;15.60;99.90;;;;;;5036479;28;20213;-73
2021/06/30 05:42:27;;;;;;;0.43;0.43;;;15.60;99.90;;;;;;5028991;28;20242;-74
2021/06/30 05:44:53;;;;;;;0.77;0.77;;;15.60;99.90;;;;;;5032537;28;20205;-73
2021/06/30 05:47:19;;;;;;;0.47;0.47;;;15.70;99.90;;;;;;5038980;28;20185;-73
2021/06/30 05:49:45;;;;;;;0.38;0.38;;;16.00;99.90;;;;;;5037390;28;20198;-74
2021/06/30 05:52:10;;;;;;;0.30;0.30;;;16.10;99.90;;;;;;5032678;28;20193;-73
2021/06/30 05:54:37;;;;;;;0.50;0.50;;;16.20;99.90;;;;;;5035615;28;20301;-72
2021/06/30 05:57:02;;;;;;;0.40;0.40;;;16.10;99.90;;;;;;5027442;28;20212;-73
2021/06/30 05:59:28;;;;;;;0.40;0.40;;;16.10;99.90;;;;;;5036769;28;20298;-74
2021/06/30 06:01:54;;;;;;;0.40;0.40;;;16.10;99.90;;;;;;5031335;28;20226;-74
2021/06/30 06:04:20;;;;;;;0.40;0.40;;;16.20;99.90;;;;;;5031857;28;20221;-74
2021/06/30 06:06:45;;;;;;;0.40;0.40;;;16.10;99.90;;;;;;5041952;28;20198;-74
2021/06/30 06:09:11;;;;;;;0.30;0.30;;;16.30;99.90;;;;;;5053133;28;20200;-74
2021/06/30 06:11:36;;;;;;;0.30;0.30;;;16.50;99.90;;;;;;5040822;28;20232;-74
2021/06/30 06:14:02;;;;;;;0.50;0.50;;;16.60;99.90;;;;;;5041579;28;20193;-75
2021/06/30 06:16:28;;;;;;;0.40;0.40;;;16.70;99.90;;;;;;5047316;28;20688;-74
2021/06/30 06:18:54;;;;;;;0.60;0.60;;;16.90;99.90;;;;;;5028517;28;20606;-74
2021/06/30 06:21:19;;;;;;;0.30;0.30;;;16.90;99.90;;;;;;5032728;28;20213;-75
2021/06/30 06:23:45;;;;;;;0.30;0.30;;;16.90;99.90;;;;;;5039707;28;20198;-73
2021/06/30 06:26:12;;;;;;;0.40;0.40;;;16.80;99.90;;;;;;5032191;28;20201;-74
2021/06/30 06:28:38;;;;;;;0.40;0.40;;;17.20;99.90;;;;;;5040648;28;20973;-74
2021/06/30 06:31:09;;;;;;;0.52;0.52;;;17.10;99.90;;;;;;5032766;28;20202;-75
2021/06/30 06:33:34;;;;;;;0.35;0.35;;;17.10;99.90;;;;;;5040626;28;20299;-74
2021/06/30 06:36:00;;;;;;;0.40;0.40;;;17.10;99.90;;;;;;5017005;28;20325;-73
2021/06/30 06:38:27;;;;;;;0.30;0.30;;;17.00;99.90;;;;;;5037634;28;20220;-74
2021/06/30 06:40:52;;;;;;;0.30;0.30;;;17.00;99.90;;;;;;5037179;28;20266;-75
2021/06/30 06:43:18;;;;;;;0.32;0.32;;;16.90;99.90;;;;;;5041761;28;20201;-74
2021/06/30 06:45:44;;;;;;;1.95;0.65;;;16.90;99.90;;;;;;5030756;28;20228;-74
2021/06/30 06:48:10;;;;;;;2.28;1.38;;;16.70;99.90;;;;;;5040281;28;20208;-75
2021/06/30 06:50:36;;;;;;;0.55;0.55;;;16.70;99.90;;;;;;5035328;28;20225;-75
2021/06/30 06:53:02;;;;;;;0.30;0.30;;;16.80;99.90;;;;;;5031105;28;20190;-75
2021/06/30 06:55:28;;;;;;;0.55;0.55;;;16.90;99.90;;;;;;5050315;28;20919;-75
2021/06/30 06:57:54;;;;;;;0.40;0.40;;;17.00;99.90;;;;;;5036179;28;20224;-76
2021/06/30 07:00:21;;;;;;;0.85;0.75;;;16.90;99.90;;;;;;5042095;28;20211;-75
2021/06/30 07:02:46;;;;;;;1.65;0.52;;;16.80;99.90;;;;;;5038100;28;20202;-75
2021/06/30 07:05:12;;;;;;;1.42;0.90;;;16.80;99.90;;;;;;5034110;28;20271;-74
2021/06/30 07:07:40;;;;;;;0.63;0.63;;;16.70;99.90;;;;;;5037900;28;20233;-74
2021/06/30 07:10:06;;;;;;;0.20;0.20;;;16.90;99.90;;;;;;5038239;28;20198;-75
2021/06/30 07:12:32;;;;;;;0.40;0.40;;;17.10;99.90;;;;;;5034612;28;20252;-76
2021/06/30 07:15:00;;;;;;;0.77;0.77;;;17.30;99.90;;;;;;5042965;28;20193;-76
2021/06/30 07:17:26;;;;;;;0.45;0.40;;;17.10;99.90;;;;;;5044550;28;20201;-74
2021/06/30 07:19:52;;;;;;;0.30;0.30;;;17.10;99.90;;;;;;5041832;28;20216;-75
2021/06/30 07:22:18;;;;;;;0.30;0.30;;;17.40;99.90;;;;;;5043017;28;20220;-75
2021/06/30 07:24:44;;;;;;;1.73;0.38;;;17.70;99.90;;;;;;5052529;28;20202;-75
2021/06/30 07:27:09;;;;;;;0.30;0.30;;;17.90;99.90;;;;;;5058640;28;20982;-74
2021/06/30 07:29:35;;;;;;;0.30;0.30;;;18.00;99.90;;;;;;5057022;28;20240;-74
2021/06/30 07:32:01;;;;;;;0.35;0.30;;;18.20;99.90;;;;;;5041872;28;20625;-76
2021/06/30 07:34:26;;;;;;;0.20;0.20;;;18.40;99.90;;;;;;5048987;28;20679;-74
2021/06/30 07:36:52;;;;;;;0.30;0.30;;;18.50;99.90;;;;;;5039341;28;20829;-75
2021/06/30 07:39:18;;;;;;;0.30;0.30;;;18.60;99.90;;;;;;5035234;28;20745;-73
2021/06/30 07:41:44;;;;;;;0.70;0.68;;;18.70;99.90;;;;;;5037337;28;20256;-74
2021/06/30 07:44:09;;;;;;;0.30;0.30;;;18.90;99.90;;;;;;5040652;28;21054;-74
2021/06/30 07:46:35;;;;;;;0.68;0.65;;;18.90;99.90;;;;;;5042028;28;20206;-74
2021/06/30 07:49:01;;;;;;;0.20;0.20;;;19.00;99.90;;;;;;5038488;28;20212;-73
2021/06/30 07:51:27;;;;;;;0.32;0.32;;;19.10;99.90;;;;;;5034785;28;20278;-73
2021/06/30 07:53:53;;;;;;;0.30;0.30;;;19.20;99.90;;;;;;5033855;28;20198;-73
2021/06/30 07:56:33;;;;;;;0.20;0.20;;;19.30;99.90;;;;;;5031380;28;20200;-73
2021/06/30 07:59:00;;;;;;;0.50;0.40;;;19.40;99.90;;;;;;5039376;28;20387;-74
2021/06/30 08:01:26;;;;;;;0.20;0.20;;;19.60;99.90;;;;;;5037557;28;21017;-74
2021/06/30 08:03:51;;;;;;;0.38;0.38;;;19.80;99.90;;;;;;5037898;28;20229;-74
2021/06/30 08:06:17;;;;;;;0.40;0.40;;;19.90;99.90;;;;;;5035836;28;20205;-75
2021/06/30 08:08:43;;;;;;;0.30;0.30;;;19.80;99.90;;;;;;5031056;28;20208;-73
2021/06/30 08:11:08;;;;;;;0.20;0.20;;;19.70;99.90;;;;;;5033471;28;20670;-73
2021/06/30 08:13:34;;;;;;;0.20;0.20;;;19.70;99.90;;;;;;5036992;28;21354;-73
2021/06/30 08:16:00;;;;;;;0.63;0.63;;;19.90;99.90;;;;;;5035126;28;20280;-72
2021/06/30 08:18:25;;;;;;;0.30;0.30;;;19.70;99.90;;;;;;5033384;28;20225;-72
2021/06/30 08:20:52;;;;;;;0.30;0.30;;;19.90;99.90;;;;;;5042222;28;20198;-74
2021/06/30 08:23:18;;;;;;;0.40;0.40;;;20.10;99.90;;;;;;5034974;28;20292;-74
2021/06/30 08:25:45;;;;;;;0.60;0.55;;;20.30;99.90;;;;;;5036374;28;20205;-73
2021/06/30 08:28:12;;;;;;;0.20;0.20;;;20.30;99.90;;;;;;5037935;28;20228;-74
2021/06/30 08:30:38;;;;;;;1.05;0.85;;;20.50;99.90;;;;;;5052571;28;20678;-75
2021/06/30 08:33:04;;;;;;;2.65;0.50;;;20.60;99.90;;;;;;5039434;28;20189;-76
2021/06/30 08:35:29;;;;;;;0.25;0.25;;;20.60;99.90;;;;;;5041147;28;20225;-75
2021/06/30 08:37:55;;;;;;;0.55;0.40;;;20.60;99.90;;;;;;5053380;28;20193;-74
2021/06/30 08:40:21;;;;;;;0.20;0.20;;;20.50;99.90;;;;;;5043063;28;20189;-74
2021/06/30 08:42:47;;;;;;;1.65;0.82;;;20.40;99.90;;;;;;5041808;28;20204;-74
2021/06/30 08:45:13;;;;;;;2.45;1.08;;;20.50;99.90;;;;;;5035612;28;20293;-74
2021/06/30 08:47:41;;;;;;;0.20;0.20;;;20.50;99.90;;;;;;5043905;28;20330;-74
2021/06/30 08:50:08;;;;;;;0.40;0.40;;;20.50;99.90;;;;;;5038458;28;20194;-74
2021/06/30 08:52:35;;;;;;;0.63;0.52;;;20.90;99.90;;;;;;5040178;28;20201;-75
2021/06/30 08:55:06;;;;;;;0.20;0.20;;;21.20;99.90;;;;;;5039982;28;20228;-75
2021/06/30 08:57:33;;;;;;;0.30;0.30;;;21.50;99.90;;;;;;5035100;28;20231;-74
2021/06/30 08:59:59;;;;;;;0.45;0.45;;;21.70;99.90;;;;;;5037661;28;20205;-75
2021/06/30 09:02:25;;;;;;;0.57;0.40;;;21.60;99.90;;;;;;5037887;28;20719;-74
2021/06/30 09:05:37;;;;;;;0.50;0.50;;;21.30;99.90;;;;;;5038744;28;20308;-76
2021/06/30 09:07:43;;;;;;;0.30;0.30;;;21.50;99.90;;;;;;5033236;28;20212;-76
2021/06/30 09:10:27;;;;;;;0.43;0.43;;;21.50;99.90;;;;;;5038746;28;20957;-75
2021/06/30 09:12:53;;;;;;;1.65;0.50;;;21.40;99.90;;;;;;5041817;28;20185;-76
2021/06/30 09:15:20;;;;;;;0.47;0.47;;;21.40;99.90;;;;;;5042596;28;20204;-75
2021/06/30 09:17:47;;;;;;;0.35;0.35;;;21.50;99.90;;;;;;5040179;28;20233;-75
2021/06/30 09:20:13;;;;;;;0.30;0.28;;;21.10;99.90;;;;;;5037993;28;20208;-74
2021/06/30 09:22:51;;;;;;;0.40;0.40;;;20.80;99.90;;;;;;5039990;28;20205;-75
2021/06/30 09:25:27;;;;;;;0.45;0.43;;;21.20;99.90;;;;;;5038976;28;20208;-74
2021/06/30 09:27:53;;;;;;;0.20;0.20;;;21.50;99.90;;;;;;5043574;28;20208;-75
2021/06/30 09:30:19;;;;;;;0.63;0.63;;;22.20;99.90;;;;;;5038130;28;20314;-76
2021/06/30 09:32:58;;;;;;;0.40;0.40;;;22.20;99.90;;;;;;5039741;28;20280;-75
2021/06/30 09:35:33;;;;;;;0.20;0.20;;;22.00;99.90;;;;;;5034924;28;20197;-73
2021/06/30 09:38:19;;;;;;;0.50;0.50;;;22.30;99.90;;;;;;5036376;28;20212;-73
2021/06/30 09:40:45;;;;;;;0.20;0.20;;;22.40;99.90;;;;;;5035670;28;20198;-72
2021/06/30 09:43:24;;;;;;;0.47;0.47;;;22.70;99.90;;;;;;5036289;28;20231;-72
2021/06/30 09:45:50;;;;;;;7.97;0.40;;;22.90;99.90;;;;;;5038932;28;20540;-73
2021/06/30 09:48:30;;;;;;;0.30;0.30;;;22.70;99.90;;;;;;5032393;28;20186;-73
2021/06/30 09:50:57;;;;;;;0.20;0.20;;;22.30;99.90;;;;;;5035581;28;20198;-72
2021/06/30 09:53:41;;;;;;;2.28;0.30;;;22.00;99.90;;;;;;5038602;28;20839;-73
2021/06/30 09:56:32;;;;;;;0.10;0.10;;;22.10;99.90;;;;;;5041182;28;20200;-73
2021/06/30 09:59:10;;;;;;;0.43;0.43;;;22.30;99.90;;;;;;5039519;28;20935;-73
2021/06/30 10:01:37;;;;;;;0.00;0.00;;;22.80;99.90;;;;;;5041682;28;20205;-73
2021/06/30 10:04:03;;;;;;;0.35;0.35;;;22.80;99.90;;;;;;5039817;28;20304;-73
2021/06/30 10:06:32;;;;;;;0.20;0.20;;;23.00;99.90;;;;;;5042352;28;20229;-73
2021/06/30 10:09:05;;;;;;;0.65;0.40;;;23.50;99.90;;;;;;5042982;28;20186;-73
2021/06/30 10:11:33;;;;;;;0.30;0.30;;;23.70;99.90;;;;;;5041705;28;20284;-73
2021/06/30 10:14:00;;;;;;;0.10;0.10;;;23.30;99.90;;;;;;5037817;28;20189;-72
2021/06/30 10:16:27;;;;;;;0.20;0.20;;;23.20;99.90;;;;;;5040605;28;20600;-72
2021/06/30 10:18:58;;;;;;;1.27;0.50;;;23.30;99.90;;;;;;5040008;28;20194;-73
2021/06/30 10:21:29;;;;;;;0.17;0.17;;;23.80;99.90;;;;;;5041349;28;20248;-73
2021/06/30 10:23:56;;;;;;;1.05;0.47;;;24.20;99.90;;;;;;5044538;28;20246;-73
2021/06/30 10:26:22;;;;;;;0.20;0.20;;;24.40;99.90;;;;;;5039007;28;20212;-73
2021/06/30 10:28:58;;;;;;;0.30;0.30;;;24.70;99.90;;;;;;5035312;28;20624;-73
2021/06/30 10:31:24;;;;;;;0.20;0.20;;;24.50;99.90;;;;;;5038425;28;20951;-74
2021/06/30 10:33:58;;;;;;;1.20;0.20;;;24.80;99.90;;;;;;5040413;28;20237;-73
2021/06/30 10:36:49;;;;;;;0.85;0.40;;;24.50;99.70;;;;;;5040625;28;20190;-74
2021/06/30 10:39:17;;;;;;;0.43;0.43;;;24.80;99.90;;;;;;5041259;28;20266;-74
2021/06/30 10:41:53;;;;;;;0.10;0.10;;;25.10;99.60;;;;;;5035215;28;20193;-74
2021/06/30 10:44:22;;;;;;;0.10;0.10;;;25.20;98.30;;;;;;5039687;28;20268;-74
2021/06/30 10:46:48;;;;;;;0.15;0.15;;;25.30;97.80;;;;;;5042499;28;20193;-73
2021/06/30 10:49:13;;;;;;;0.20;0.20;;;25.70;97.60;;;;;;5036751;28;20736;-73
2021/06/30 10:51:54;;;;;;;0.35;0.35;;;25.60;98.00;;;;;;5033614;28;20202;-73
2021/06/30 10:54:32;;;;;;;0.20;0.20;;;25.50;96.50;;;;;;5040651;28;20198;-74
2021/06/30 10:57:21;;;;;;;0.25;0.17;;;25.60;96.80;;;;;;5039590;28;20229;-74
2021/06/30 11:00:09;;;;;;;0.30;0.30;;;26.30;95.80;;;;;;5037399;28;20241;-73
2021/06/30 11:02:35;;;;;;;0.10;0.10;;;25.70;95.60;;;;;;5035616;28;20217;-73
2021/06/30 11:05:13;;;;;;;0.10;0.10;;;25.80;94.20;;;;;;5038890;28;20229;-73
2021/06/30 11:07:40;;;;;;;0.30;0.30;;;26.00;96.20;;;;;;5041995;28;20234;-73
2021/06/30 11:10:21;;;;;;;0.17;0.17;;;26.10;93.40;;;;;;5041150;28;20957;-74
2021/06/30 11:12:54;;;;;;;0.43;0.25;;;26.20;95.90;;;;;;5043349;28;20670;-74
2021/06/30 11:15:42;;;;;;;0.10;0.10;;;26.10;92.50;;;;;;5036209;28;21032;-74
2021/06/30 11:18:11;;;;;;;0.17;0.17;;;26.10;93.70;;;;;;5040628;28;20229;-74
2021/06/30 11:21:03;;;;;;;0.30;0.30;;;26.20;94.60;;;;;;5040220;28;20212;-74
2021/06/30 11:23:29;;;;;;;0.30;0.30;;;26.50;95.30;;;;;;5039693;28;20731;-74
2021/06/30 11:26:15;;;;;;;0.20;0.20;;;26.00;90.90;;;;;;5037022;28;20198;-74
2021/06/30 11:28:41;;;;;;;0.20;0.20;;;25.40;91.90;;;;;;5056828;28;20197;-73
2021/06/30 11:31:25;;;;;;;0.20;0.20;;;24.80;95.70;;;;;;5037859;28;20293;-74
2021/06/30 11:34:23;;;;;;;0.20;0.20;;;25.10;96.70;;;;;;5054952;28;20706;-74
2021/06/30 11:36:49;;;;;;;0.10;0.10;;;25.40;95.50;;;;;;5032448;28;20639;-73
2021/06/30 11:39:19;;;;;;;0.30;0.30;;;25.10;94.40;;;;;;5037357;28;20209;-73
2021/06/30 11:41:50;;;;;;;0.40;0.40;;;25.10;93.90;;;;;;5034351;28;20201;-74
2021/06/30 11:44:18;;;;;;;2.72;1.10;;;25.40;92.20;;;;;;5044198;28;20189;-74
2021/06/30 11:46:45;;;;;;;0.20;0.20;;;25.30;92.10;;;;;;5043686;28;20194;-74
2021/06/30 11:49:17;;;;;;;0.10;0.10;;;24.90;93.00;;;;;;5036238;28;20587;-73
2021/06/30 11:51:43;;;;;;;0.40;0.40;;;24.20;93.80;;;;;;5045210;28;20624;-73
2021/06/30 11:54:14;;;;;;;0.20;0.20;;;23.50;94.90;;;;;;5036255;28;20198;-73
2021/06/30 11:56:41;;;;;;;0.20;0.20;;;23.60;95.30;;;;;;5048224;28;20285;-74
2021/06/30 11:59:15;;;;;;;0.10;0.10;;;23.70;94.70;;;;;;5059439;28;20198;-73
2021/06/30 12:01:41;;;;;;;1.35;0.75;;;23.90;95.80;;;;;;5033041;28;20241;-74
2021/06/30 12:04:24;;;;;;;1.70;0.52;;;24.70;96.60;;;;;;5044260;28;20222;-73
2021/06/30 12:07:01;;;;;;;0.10;0.10;;;24.90;93.70;;;;;;5045827;28;20194;-74
2021/06/30 12:09:28;;;;;;;0.35;0.35;;;25.70;92.30;;;;;;5046245;28;20220;-73
2021/06/30 12:12:01;;;;;;;0.30;0.30;;;25.10;93.00;;;;;;5043943;28;20200;-74
2021/06/30 12:14:29;;;;;;;0.20;0.20;;;24.80;94.40;;;;;;5039770;28;20230;-73
2021/06/30 12:16:58;;;;;;;0.20;0.20;;;25.20;94.70;;;;;;5043686;28;20248;-73
2021/06/30 12:19:44;;;;;;;0.10;0.10;;;25.70;93.20;;;;;;5045844;28;20189;-74
2021/06/30 12:22:37;;;;;;;0.45;0.40;;;26.10;89.50;;;;;;5043198;28;20205;-74
2021/06/30 12:25:11;;;;;;;0.10;0.10;;;26.60;90.30;;;;;;5031306;28;20241;-74
2021/06/30 12:27:51;;;;;;;0.10;0.10;;;27.10;89.20;;;;;;5037742;28;20249;-74
2021/06/30 12:30:17;;;;;;;0.10;0.10;;;27.00;87.90;;;;;;5032033;28;20202;-74
2021/06/30 12:32:50;;;;;;;0.30;0.30;;;26.70;90.20;;;;;;5044631;28;20201;-73
2021/06/30 12:35:22;;;;;;;0.10;0.10;;;26.90;90.50;;;;;;5036468;28;20202;-74
2021/06/30 12:38:07;;;;;;;0.10;0.10;;;26.60;87.60;;;;;;5041138;28;20252;-74
2021/06/30 12:40:33;;;;;;;0.40;0.40;;;26.20;87.20;;;;;;5046667;28;20273;-73
2021/06/30 12:43:01;;;;;;;0.22;0.20;;;25.90;87.10;;;;;;5046471;28;20197;-74
2021/06/30 12:45:39;;;;;;;0.10;0.10;;;25.80;90.00;;;;;;5042444;28;20205;-74
2021/06/30 12:48:10;;;;;;;0.10;0.10;;;26.90;90.60;;;;;;5034448;28;20186;-74
2021/06/30 12:50:42;;;;;;;0.10;0.10;;;27.60;90.30;;;;;;5043709;28;20208;-74
2021/06/30 12:53:11;;;;;;;0.10;0.10;;;27.60;87.70;;;;;;5039367;28;20209;-72